createdAt,value
2022-12-31T00:07:47.480Z,100284.13
2022-12-31T00:18:10.111Z,100290.59
2022-12-31T00:28:31.688Z,100291.88
2022-12-31T00:38:54.832Z,100311.03
2022-12-31T00:49:16.490Z,100323.75
2022-12-31T00:59:38.009Z,100310.81
2022-12-31T01:09:59.474Z,100324.91
2022-12-31T01:20:20.965Z,100329.53
2022-12-31T01:30:42.449Z,100333.06
2022-12-31T01:41:05.161Z,100328.69
2022-12-31T01:51:30.710Z,100340.69
2022-12-31T02:01:52.844Z,100354.44
2022-12-31T02:12:14.742Z,100354.91
2022-12-31T02:22:45.197Z,100355.66
2022-12-31T02:33:14.268Z,100346.09
2022-12-31T02:43:35.805Z,100351.44
2022-12-31T02:54:03.224Z,100350.59
2022-12-31T03:04:32.310Z,100332.41
2022-12-31T03:14:54.067Z,100323.78
2022-12-31T03:25:33.917Z,100331.72
2022-12-31T03:35:55.459Z,100347.44
2022-12-31T03:46:16.974Z,100333.06
2022-12-31T03:56:38.484Z,100326.16
2022-12-31T04:07:00.398Z,100324.06
2022-12-31T04:17:21.751Z,100291.38
2022-12-31T04:27:46.057Z,100307.22
2022-12-31T04:38:07.569Z,100312.63
2022-12-31T04:48:29.101Z,100342.44
2022-12-31T04:58:50.838Z,100360.59
2022-12-31T05:09:12.357Z,100385.91
2022-12-31T05:19:33.845Z,100368.72
2022-12-31T05:29:55.383Z,100372.38
2022-12-31T05:40:17.147Z,100369.72
2022-12-31T05:50:38.508Z,100344.75
2022-12-31T06:01:00.167Z,100369.00
2022-12-31T06:11:21.790Z,100387.97
2022-12-31T06:21:43.308Z,100361.03
2022-12-31T06:32:05.204Z,100394.22
2022-12-31T06:42:28.599Z,100380.56
2022-12-31T06:52:50.142Z,100396.28
2022-12-31T07:03:14.645Z,100410.19
2022-12-31T07:13:50.781Z,100415.38
2022-12-31T07:24:12.962Z,100405.25
2022-12-31T07:34:54.517Z,100413.66
2022-12-31T07:45:30.238Z,100408.38
2022-12-31T07:55:58.450Z,100408.09
2022-12-31T08:06:52.158Z,100411.47
2022-12-31T08:17:16.391Z,100420.72
2022-12-31T08:28:14.617Z,100422.28
2022-12-31T08:39:02.962Z,100405.00
2022-12-31T08:49:29.255Z,100414.19
2022-12-31T08:59:50.996Z,100417.41
2022-12-31T09:10:28.442Z,100420.25
2022-12-31T09:20:50.362Z,100427.94
2022-12-31T09:31:16.073Z,100416.38
2022-12-31T09:42:01.760Z,100421.06
2022-12-31T09:52:55.210Z,100434.34
2022-12-31T10:03:26.775Z,100424.19
2022-12-31T10:14:21.856Z,100427.22
2022-12-31T10:24:43.398Z,100428.06
2022-12-31T10:35:13.896Z,100465.19
2022-12-31T10:45:48.133Z,100450.94
2022-12-31T10:56:09.526Z,100467.28
2022-12-31T11:06:37.066Z,100459.50
2022-12-31T11:16:58.866Z,100474.44
2022-12-31T11:27:48.989Z,100466.56
2022-12-31T11:38:29.057Z,100451.84
2022-12-31T11:48:57.519Z,100439.31
2022-12-31T11:59:19.929Z,100451.63
2022-12-31T12:09:43.822Z,100466.56
2022-12-31T12:20:14.658Z,100450.88
2022-12-31T12:30:37.965Z,100448.88
2022-12-31T12:41:00.576Z,100436.41
2022-12-31T12:51:31.223Z,100440.69
2022-12-31T13:01:58.957Z,100431.81
2022-12-31T13:13:05.149Z,100455.72
2022-12-31T13:23:26.539Z,100443.97
2022-12-31T13:33:50.942Z,100441.38
2022-12-31T13:44:44.900Z,100456.69
2022-12-31T13:55:06.287Z,100464.72
2022-12-31T14:05:36.249Z,100468.97
2022-12-31T14:16:03.839Z,100499.94
2022-12-31T14:26:33.716Z,100505.78
2022-12-31T14:37:04.256Z,100505.34
2022-12-31T14:47:38.026Z,100522.13
2022-12-31T14:58:27.270Z,100545.00
2022-12-31T15:08:49.476Z,100543.84
2022-12-31T15:19:16.828Z,100556.25
2022-12-31T15:29:45.508Z,100578.34
2022-12-31T15:40:18.061Z,100567.88
2022-12-31T15:50:41.770Z,100563.06
2022-12-31T16:01:24.931Z,100537.00
2022-12-31T16:11:46.725Z,100564.81
2022-12-31T16:22:13.506Z,100577.56
2022-12-31T16:32:38.282Z,100577.75
2022-12-31T16:43:00.476Z,100587.84
2022-12-31T16:53:26.899Z,100595.19
2022-12-31T17:03:53.533Z,100597.34
2022-12-31T17:14:17.571Z,100574.06
2022-12-31T17:24:39.569Z,100571.16
2022-12-31T17:35:01.070Z,100552.34
2022-12-31T17:45:22.545Z,100550.13
2022-12-31T17:55:47.918Z,100560.59
2022-12-31T18:06:16.054Z,100551.09
2022-12-31T18:16:38.134Z,100528.13
2022-12-31T18:26:59.509Z,100529.34
2022-12-31T18:37:22.458Z,100505.22
2022-12-31T18:47:44.027Z,100555.28
2022-12-31T18:58:05.493Z,100534.91
2022-12-31T19:08:26.834Z,100549.69
2022-12-31T19:18:49.431Z,100529.25
2022-12-31T19:29:16.143Z,100504.34
2022-12-31T19:39:37.484Z,100537.84
2022-12-31T19:49:58.816Z,100535.81
2022-12-31T20:00:20.716Z,100539.94
2022-12-31T20:10:42.476Z,100534.41
2022-12-31T20:21:04.242Z,100541.66
2022-12-31T20:31:26.676Z,100553.44
2022-12-31T20:41:48.112Z,100539.31
2022-12-31T20:52:09.502Z,100520.91
2022-12-31T21:02:41.327Z,100533.72
2022-12-31T21:13:03.733Z,100567.00
2022-12-31T21:23:25.072Z,100563.47
2022-12-31T21:33:47.057Z,100584.25
2022-12-31T21:44:08.547Z,100578.81
2022-12-31T21:54:48.609Z,100586.63
2022-12-31T22:05:18.519Z,100580.91
2022-12-31T22:15:43.960Z,100582.94
2022-12-31T22:26:07.726Z,100597.31
2022-12-31T22:36:29.241Z,100617.44
2022-12-31T22:46:50.858Z,100636.47
2022-12-31T22:57:17.833Z,100649.22
2022-12-31T23:07:42.399Z,100630.91
2022-12-31T23:18:22.484Z,100620.81
2022-12-31T23:28:44.234Z,100669.44
2022-12-31T23:39:05.596Z,100641.34
2022-12-31T23:49:27.043Z,100652.88
2022-12-31T23:59:48.433Z,100654.13
